createdAt,value
2018-02-23T00:01:28.034Z,1.82
2018-02-23T00:03:55.696Z,1.81
2018-02-23T00:06:23.246Z,1.66
2018-02-23T00:08:50.754Z,1.48
2018-02-23T00:11:18.351Z,1.55
2018-02-23T00:13:45.866Z,1.45
2018-02-23T00:16:13.381Z,1.52
2018-02-23T00:18:40.926Z,1.41
2018-02-23T00:21:08.459Z,1.54
2018-02-23T00:23:36.165Z,1.62
2018-02-23T00:26:03.692Z,1.70
2018-02-23T00:28:31.211Z,1.57
2018-02-23T00:30:58.782Z,1.56
2018-02-23T00:33:26.298Z,1.36
2018-02-23T00:35:53.844Z,1.41
2018-02-23T00:38:21.359Z,1.45
2018-02-23T00:40:48.871Z,1.43
2018-02-23T00:43:17.198Z,1.49
2018-02-23T00:45:44.721Z,1.48
2018-02-23T00:48:12.266Z,1.49
2018-02-23T00:50:39.789Z,1.35
2018-02-23T00:53:07.314Z,1.18
2018-02-23T00:55:34.875Z,1.24
2018-02-23T00:58:02.729Z,1.15
2018-02-23T01:00:30.251Z,1.48
2018-02-23T01:02:57.790Z,1.31
2018-02-23T01:05:25.315Z,1.24
2018-02-23T01:07:52.874Z,1.37
2018-02-23T01:10:20.403Z,1.29
2018-02-23T01:12:47.935Z,1.38
2018-02-23T01:15:15.465Z,1.26
2018-02-23T01:17:43.018Z,1.27
2018-02-23T01:20:10.730Z,1.33
2018-02-23T01:22:38.261Z,1.50
2018-02-23T01:25:05.798Z,1.35
2018-02-23T01:27:33.507Z,1.31
2018-02-23T01:30:01.027Z,1.49
2018-02-23T01:32:28.565Z,1.57
2018-02-23T01:34:56.120Z,1.48
2018-02-23T01:37:23.655Z,1.54
2018-02-23T01:39:51.175Z,1.36
2018-02-23T01:42:19.202Z,1.42
2018-02-23T01:44:46.713Z,1.47
2018-02-23T01:47:14.217Z,1.62
2018-02-23T01:49:41.947Z,1.43
2018-02-23T01:52:09.466Z,1.48
2018-02-23T01:54:37.004Z,1.49
2018-02-23T01:57:04.746Z,1.42
2018-02-23T01:59:32.323Z,1.53
2018-02-23T02:01:59.834Z,1.40
2018-02-23T02:04:27.401Z,1.50
2018-02-23T02:06:54.922Z,1.56
2018-02-23T02:09:22.458Z,1.35
2018-02-23T02:11:50.038Z,1.35
2018-02-23T02:14:17.553Z,1.21
2018-02-23T02:16:45.065Z,1.52
2018-02-23T02:19:13.197Z,1.63
2018-02-23T02:21:40.717Z,1.38
2018-02-23T02:24:08.241Z,1.51
2018-02-23T02:26:36.285Z,1.46
2018-02-23T02:29:03.798Z,1.58
2018-02-23T02:31:31.311Z,1.25
2018-02-23T02:33:59.041Z,1.42
2018-02-23T02:36:26.564Z,1.39
2018-02-23T02:38:54.084Z,1.36
2018-02-23T02:41:21.635Z,1.55
2018-02-23T02:43:49.159Z,1.34
2018-02-23T02:46:16.677Z,1.25
2018-02-23T02:48:44.394Z,1.34
2018-02-23T02:51:11.911Z,1.29
2018-02-23T02:53:39.431Z,1.34
2018-02-23T02:56:07.209Z,1.46
2018-02-23T02:58:34.722Z,1.10
2018-02-23T03:01:02.238Z,1.26
2018-02-23T03:03:29.928Z,1.16
2018-02-23T03:05:57.440Z,0.96
2018-02-23T03:08:24.954Z,0.95
2018-02-23T03:10:52.490Z,0.86
2018-02-23T03:13:19.998Z,0.94
2018-02-23T03:15:47.526Z,1.01
2018-02-23T03:18:15.075Z,1.08
2018-02-23T03:20:42.597Z,0.89
2018-02-23T03:23:10.112Z,0.67
2018-02-23T03:25:37.674Z,0.97
2018-02-23T03:28:05.181Z,0.89
2018-02-23T03:30:32.695Z,0.98
2018-02-23T03:33:00.238Z,0.86
2018-02-23T03:35:27.759Z,0.85
2018-02-23T03:37:55.284Z,0.58
2018-02-23T03:40:22.821Z,0.60
2018-02-23T03:42:50.333Z,0.84
2018-02-23T03:45:17.844Z,0.91
2018-02-23T03:47:46.351Z,0.84
2018-02-23T03:50:14.030Z,0.80
2018-02-23T03:52:41.693Z,0.52
2018-02-23T03:55:09.239Z,0.51
2018-02-23T03:57:36.843Z,0.21
2018-02-23T04:00:04.357Z,0.45
2018-02-23T04:02:31.899Z,0.62
2018-02-23T04:04:59.414Z,0.34
2018-02-23T04:07:26.931Z,0.64
2018-02-23T04:09:54.470Z,0.33
2018-02-23T04:12:21.997Z,0.49
2018-02-23T04:14:49.532Z,0.09
2018-02-23T04:17:17.087Z,0.68
2018-02-23T04:19:44.602Z,0.26
2018-02-23T04:22:12.110Z,0.41
2018-02-23T04:24:39.650Z,0.43
2018-02-23T04:27:07.153Z,0.26
2018-02-23T04:29:34.674Z,0.26
2018-02-23T04:32:02.218Z,0.23
2018-02-23T04:34:29.729Z,0.14
2018-02-23T04:36:57.249Z,0.04
2018-02-23T04:39:25.112Z,-0.11
2018-02-23T04:41:52.635Z,0.26
2018-02-23T04:44:20.150Z,-0.02
2018-02-23T04:46:47.694Z,-0.27
2018-02-23T04:49:15.258Z,0.14
2018-02-23T04:51:42.759Z,-0.10
2018-02-23T04:54:10.317Z,0.05
2018-02-23T04:56:37.847Z,-0.24
2018-02-23T04:59:05.373Z,-0.20
2018-02-23T05:01:32.937Z,-0.35
2018-02-23T05:04:00.462Z,-0.20
2018-02-23T05:06:27.973Z,-0.04
2018-02-23T05:08:55.521Z,-0.17
2018-02-23T05:11:23.041Z,-0.17
2018-02-23T05:13:50.563Z,-0.35
2018-02-23T05:16:18.620Z,-0.37
2018-02-23T05:18:46.135Z,-0.18
2018-02-23T05:21:13.655Z,-0.34
2018-02-23T05:23:41.197Z,-0.10
2018-02-23T05:26:08.718Z,-0.15
2018-02-23T05:28:36.241Z,-0.16
2018-02-23T05:31:03.790Z,-0.14
2018-02-23T05:33:31.316Z,-0.22
2018-02-23T05:35:58.849Z,-0.45
2018-02-23T05:38:26.392Z,-0.27
2018-02-23T05:40:53.917Z,-0.28
2018-02-23T05:43:21.442Z,-0.80
2018-02-23T05:45:48.981Z,-0.55
2018-02-23T05:48:16.502Z,-0.54
2018-02-23T05:50:44.025Z,-0.55
2018-02-23T05:53:11.582Z,-0.60
2018-02-23T05:55:39.109Z,-0.20
2018-02-23T05:58:06.635Z,-0.43
2018-02-23T06:00:34.178Z,-0.35
2018-02-23T06:03:01.713Z,-0.42
2018-02-23T06:05:29.257Z,-0.46
2018-02-23T06:07:56.805Z,-0.54
2018-02-23T06:10:24.328Z,-0.52
2018-02-23T06:12:51.852Z,-0.49
2018-02-23T06:15:19.389Z,-0.54
2018-02-23T06:17:52.460Z,-0.51
2018-02-23T06:20:25.680Z,-0.63
2018-02-23T06:22:53.226Z,-0.60
2018-02-23T06:25:20.750Z,-0.20
2018-02-23T06:27:48.402Z,-0.31
2018-02-23T06:30:15.918Z,-0.64
2018-02-23T06:32:43.452Z,-0.63
2018-02-23T06:35:10.994Z,-0.50
2018-02-23T06:37:38.900Z,-0.58
2018-02-23T06:40:06.422Z,-0.44
2018-02-23T06:42:34.301Z,-0.68
2018-02-23T06:45:01.822Z,-0.55
2018-02-23T06:47:29.342Z,-0.36
2018-02-23T06:49:56.886Z,-0.56
2018-02-23T06:52:24.421Z,-0.79
2018-02-23T06:54:51.946Z,-0.33
2018-02-23T06:57:19.499Z,-0.59
2018-02-23T06:59:47.019Z,-0.48
2018-02-23T07:02:14.583Z,-0.38
2018-02-23T07:04:42.166Z,-0.40
2018-02-23T07:07:09.701Z,-0.30
2018-02-23T07:09:37.236Z,-0.38
2018-02-23T07:12:04.786Z,-0.44
2018-02-23T07:14:32.311Z,-0.52
2018-02-23T07:16:59.849Z,-0.05
2018-02-23T07:19:28.327Z,-0.28
2018-02-23T07:21:55.849Z,-0.44
2018-02-23T07:24:23.382Z,-0.35
2018-02-23T07:26:50.934Z,-0.23
2018-02-23T07:29:18.468Z,-0.21
2018-02-23T07:31:46.022Z,-0.10
2018-02-23T07:34:13.562Z,0.00
2018-02-23T07:36:41.073Z,0.23
2018-02-23T07:39:08.597Z,-0.09
2018-02-23T07:41:36.143Z,0.29
2018-02-23T07:44:03.666Z,-0.28
2018-02-23T07:46:31.185Z,-0.13
2018-02-23T07:48:58.773Z,-0.22
2018-02-23T07:51:26.287Z,-0.09
2018-02-23T07:53:53.810Z,-0.11
2018-02-23T07:56:21.391Z,-0.13
2018-02-23T07:58:48.918Z,-0.19
2018-02-23T08:01:16.446Z,0.06
2018-02-23T08:03:43.989Z,-0.23
2018-02-23T08:06:11.527Z,0.30
2018-02-23T08:08:39.050Z,-0.22
2018-02-23T08:11:06.635Z,0.50
2018-02-23T08:13:34.170Z,-0.05
2018-02-23T08:16:01.704Z,-0.34
2018-02-23T08:18:29.253Z,-0.23
2018-02-23T08:20:56.777Z,-0.01
2018-02-23T08:23:24.358Z,0.26
2018-02-23T08:25:51.912Z,0.06
2018-02-23T08:28:19.461Z,0.12
2018-02-23T08:30:46.978Z,0.20
2018-02-23T08:33:14.779Z,0.21
2018-02-23T08:35:42.297Z,0.56
2018-02-23T08:38:09.815Z,0.63
2018-02-23T08:40:37.422Z,0.27
2018-02-23T08:43:04.946Z,0.10
2018-02-23T08:45:32.474Z,0.55
2018-02-23T08:48:00.027Z,0.28
2018-02-23T08:50:27.593Z,0.94
2018-02-23T08:52:55.115Z,0.61
2018-02-23T08:55:23.017Z,0.84
2018-02-23T08:57:50.537Z,0.97
2018-02-23T09:00:19.992Z,0.92
2018-02-23T09:02:47.620Z,0.40
2018-02-23T09:05:15.130Z,0.74
2018-02-23T09:07:42.653Z,0.42
2018-02-23T09:10:10.409Z,0.72
2018-02-23T09:12:37.940Z,0.65
2018-02-23T09:15:05.480Z,0.71
2018-02-23T09:17:33.037Z,1.05
2018-02-23T09:20:00.561Z,1.23
2018-02-23T09:22:28.081Z,0.98
2018-02-23T09:24:55.638Z,1.23
2018-02-23T09:27:23.154Z,1.45
2018-02-23T09:29:50.670Z,1.04
2018-02-23T09:32:20.818Z,1.44
2018-02-23T09:34:48.333Z,1.50
2018-02-23T09:37:15.854Z,1.60
2018-02-23T09:39:43.403Z,1.38
2018-02-23T09:42:10.923Z,1.37
2018-02-23T09:44:38.718Z,1.89
2018-02-23T09:47:06.287Z,1.59
2018-02-23T09:49:33.797Z,2.30
2018-02-23T09:52:01.338Z,2.10
2018-02-23T09:54:28.886Z,2.30
2018-02-23T09:56:56.452Z,1.99
2018-02-23T09:59:24.018Z,1.99
2018-02-23T10:01:51.536Z,1.80
2018-02-23T10:04:19.085Z,2.05
2018-02-23T10:06:46.604Z,2.12
2018-02-23T10:09:14.178Z,2.44
2018-02-23T10:11:41.776Z,2.39
2018-02-23T10:14:09.539Z,2.46
2018-02-23T10:16:37.123Z,2.38
2018-02-23T10:19:05.478Z,2.85
2018-02-23T10:21:33.652Z,2.79
2018-02-23T10:24:01.518Z,2.63
2018-02-23T10:26:29.086Z,2.10
2018-02-23T10:28:58.482Z,2.44
2018-02-23T10:31:26.143Z,2.81
2018-02-23T10:33:54.418Z,3.01
2018-02-23T10:36:25.936Z,2.26
2018-02-23T10:38:53.837Z,2.35
2018-02-23T10:41:21.715Z,2.57
2018-02-23T10:43:49.258Z,2.71
2018-02-23T10:46:18.153Z,2.47
2018-02-23T10:48:45.956Z,2.22
2018-02-23T10:51:13.785Z,2.48
2018-02-23T10:53:41.375Z,3.04
2018-02-23T10:56:08.889Z,2.80
2018-02-23T10:58:36.402Z,2.84
2018-02-23T11:01:03.979Z,2.92
2018-02-23T11:03:31.737Z,2.58
2018-02-23T11:05:59.543Z,2.55
2018-02-23T11:08:27.312Z,2.22
2018-02-23T11:10:54.862Z,2.41
2018-02-23T11:13:22.485Z,2.29
2018-02-23T11:15:50.093Z,2.33
2018-02-23T11:18:17.757Z,2.31
2018-02-23T11:20:45.418Z,2.71
2018-02-23T11:23:12.979Z,2.35
2018-02-23T11:25:40.518Z,2.64
2018-02-23T11:28:08.108Z,2.88
2018-02-23T11:30:35.618Z,2.88
2018-02-23T11:33:03.246Z,3.06
2018-02-23T11:35:30.918Z,3.11
2018-02-23T11:37:58.438Z,2.93
2018-02-23T11:40:25.995Z,2.95
2018-02-23T11:42:53.514Z,3.06
2018-02-23T11:45:21.128Z,4.15
2018-02-23T11:47:48.690Z,5.00
2018-02-23T11:50:16.237Z,5.02
2018-02-23T11:52:43.770Z,4.30
2018-02-23T11:55:11.307Z,3.61
2018-02-23T11:57:44.768Z,3.82
2018-02-23T12:00:12.281Z,3.96
2018-02-23T12:02:40.786Z,3.91
2018-02-23T12:05:08.373Z,3.87
2018-02-23T12:07:36.113Z,4.17
2018-02-23T12:10:03.694Z,3.74
2018-02-23T12:12:31.382Z,3.45
2018-02-23T12:14:59.172Z,3.52
2018-02-23T12:17:26.843Z,3.75
2018-02-23T12:19:54.721Z,3.66
2018-02-23T12:22:23.408Z,3.68
2018-02-23T12:24:51.376Z,3.76
2018-02-23T12:27:19.344Z,4.52
2018-02-23T12:29:47.417Z,4.17
2018-02-23T12:32:15.002Z,4.26
2018-02-23T12:34:42.844Z,4.36
2018-02-23T12:37:10.385Z,4.16
2018-02-23T12:39:38.149Z,4.37
2018-02-23T12:42:05.802Z,5.06
2018-02-23T12:44:33.525Z,5.00
2018-02-23T12:47:01.431Z,5.51
2018-02-23T12:49:28.984Z,5.73
2018-02-23T12:51:56.757Z,5.70
2018-02-23T12:54:24.647Z,5.27
2018-02-23T12:56:52.448Z,5.23
2018-02-23T12:59:20.461Z,5.68
2018-02-23T13:01:48.266Z,6.03
2018-02-23T13:04:16.115Z,6.22
2018-02-23T13:06:44.013Z,5.51
2018-02-23T13:09:12.051Z,5.68
2018-02-23T13:11:40.948Z,5.80
2018-02-23T13:14:09.386Z,5.84
2018-02-23T13:16:37.392Z,5.42
2018-02-23T13:19:05.258Z,5.55
2018-02-23T13:21:33.328Z,5.53
2018-02-23T13:24:01.101Z,5.60
2018-02-23T13:26:29.123Z,5.71
2018-02-23T13:28:57.124Z,5.73
2018-02-23T13:31:25.923Z,6.20
2018-02-23T13:33:54.149Z,5.81
2018-02-23T13:36:21.933Z,5.63
2018-02-23T13:38:50.754Z,5.63
2018-02-23T13:41:24.290Z,5.38
2018-02-23T13:43:52.319Z,5.25
2018-02-23T13:46:20.253Z,5.35
2018-02-23T13:48:48.044Z,4.93
2018-02-23T13:51:16.190Z,4.71
2018-02-23T13:53:45.935Z,4.69
2018-02-23T13:56:13.768Z,4.79
2018-02-23T13:58:41.567Z,4.68
2018-02-23T14:01:09.330Z,4.95
2018-02-23T14:03:37.591Z,4.83
2018-02-23T14:06:05.383Z,4.97
2018-02-23T14:08:33.133Z,4.68
2018-02-23T14:11:00.898Z,4.75
2018-02-23T14:13:28.735Z,4.61
2018-02-23T14:15:56.534Z,5.10
2018-02-23T14:18:24.600Z,4.70
2018-02-23T14:20:52.475Z,4.59
2018-02-23T14:23:20.666Z,4.56
2018-02-23T14:25:48.531Z,4.28
2018-02-23T14:28:16.485Z,4.24
2018-02-23T14:30:44.727Z,4.45
2018-02-23T14:33:12.825Z,4.40
2018-02-23T14:35:41.719Z,3.93
2018-02-23T14:38:09.479Z,4.47
2018-02-23T14:40:37.398Z,4.13
2018-02-23T14:43:05.314Z,4.35
2018-02-23T14:45:33.180Z,4.19
2018-02-23T14:48:01.641Z,4.04
2018-02-23T14:53:38.720Z,4.28
2018-02-23T14:56:06.731Z,4.40
2018-02-23T14:58:34.680Z,4.22
2018-02-23T15:01:02.945Z,4.22
2018-02-23T15:03:30.540Z,4.09
2018-02-23T15:05:58.425Z,4.17
2018-02-23T15:08:26.404Z,4.15
2018-02-23T15:10:54.545Z,4.00
2018-02-23T15:13:22.409Z,4.22
2018-02-23T15:15:50.378Z,4.37
2018-02-23T15:18:18.579Z,4.47
2018-02-23T15:20:46.445Z,4.51
2018-02-23T15:23:14.713Z,4.65
2018-02-23T15:25:42.664Z,4.55
2018-02-23T15:28:10.848Z,4.13
2018-02-23T15:30:50.890Z,4.18
2018-02-23T15:33:18.775Z,3.98
2018-02-23T15:35:46.378Z,4.07
2018-02-23T15:38:14.286Z,4.09
2018-02-23T15:40:42.357Z,4.22
2018-02-23T15:43:10.302Z,4.15
2018-02-23T15:45:38.980Z,4.32
2018-02-23T15:48:12.508Z,4.23
2018-02-23T15:50:45.905Z,4.27
2018-02-23T15:53:13.790Z,4.47
2018-02-23T15:55:42.355Z,4.27
2018-02-23T15:58:15.877Z,4.44
2018-02-23T16:00:43.824Z,4.47
2018-02-23T16:03:11.789Z,4.35
2018-02-23T16:05:39.759Z,4.30
2018-02-23T16:08:07.526Z,4.15
2018-02-23T16:10:35.656Z,4.24
2018-02-23T16:13:03.523Z,4.22
2018-02-23T16:15:31.942Z,3.99
2018-02-23T16:18:00.403Z,4.02
2018-02-23T16:20:28.701Z,4.32
2018-02-23T16:22:57.281Z,4.32
2018-02-23T16:25:25.064Z,4.07
2018-02-23T16:27:53.322Z,4.07
2018-02-23T16:30:21.263Z,3.95
2018-02-23T16:32:49.076Z,4.00
2018-02-23T16:35:17.330Z,4.17
2018-02-23T16:37:45.526Z,3.99
2018-02-23T16:40:13.881Z,3.85
2018-02-23T16:42:41.851Z,3.73
2018-02-23T16:45:10.538Z,3.77
2018-02-23T16:47:38.608Z,3.80
2018-02-23T16:50:06.475Z,3.90
2018-02-23T16:52:34.444Z,3.90
2018-02-23T16:55:04.563Z,3.83
2018-02-23T16:57:32.325Z,3.49
2018-02-23T17:00:00.296Z,3.51
2018-02-23T17:02:31.651Z,3.64
2018-02-23T17:04:59.613Z,3.93
2018-02-23T17:07:27.901Z,3.73
2018-02-23T17:09:56.370Z,3.82
2018-02-23T17:12:24.418Z,3.80
2018-02-23T17:14:52.308Z,3.86
2018-02-23T17:17:20.995Z,3.64
2018-02-23T17:19:48.963Z,3.71
2018-02-23T17:22:16.930Z,3.84
2018-02-23T17:24:44.901Z,3.78
2018-02-23T17:27:12.867Z,3.59
2018-02-23T17:29:40.837Z,3.87
2018-02-23T17:32:08.909Z,3.86
2018-02-23T17:34:36.879Z,3.68
2018-02-23T17:37:04.747Z,3.78
2018-02-23T17:39:32.612Z,3.76
2018-02-23T17:42:00.475Z,3.69
2018-02-23T17:44:28.347Z,3.66
2018-02-23T17:46:56.317Z,3.85
2018-02-23T17:49:24.177Z,3.57
2018-02-23T17:51:52.408Z,3.61
2018-02-23T17:54:21.055Z,3.66
2018-02-23T17:56:49.008Z,3.54
2018-02-23T17:59:16.769Z,3.67
2018-02-23T18:01:44.636Z,3.75
2018-02-23T18:04:12.707Z,3.66
2018-02-23T18:06:40.677Z,3.74
2018-02-23T18:09:08.543Z,3.73
2018-02-23T18:11:36.306Z,3.58
2018-02-23T18:14:04.176Z,3.68
2018-02-23T18:16:31.992Z,3.63
2018-02-23T18:18:59.918Z,3.63
2018-02-23T18:21:27.731Z,3.57
2018-02-23T18:23:55.573Z,3.60
2018-02-23T18:26:23.300Z,3.52
2018-02-23T18:28:51.270Z,3.60
2018-02-23T18:31:19.723Z,3.44
2018-02-23T18:33:47.616Z,3.56
2018-02-23T18:36:15.389Z,3.82
2018-02-23T18:38:43.246Z,3.68
2018-02-23T18:41:11.216Z,3.44
2018-02-23T18:43:38.990Z,3.49
2018-02-23T18:46:06.744Z,3.36
2018-02-23T18:48:34.889Z,3.72
2018-02-23T18:51:02.538Z,3.67
2018-02-23T18:53:30.649Z,3.51
2018-02-23T18:55:59.541Z,3.20
2018-02-23T18:58:27.407Z,3.34
2018-02-23T19:00:55.245Z,3.50
2018-02-23T19:03:23.037Z,3.28
2018-02-23T19:05:51.211Z,3.40
2018-02-23T19:08:19.180Z,3.17
2018-02-23T19:10:47.186Z,3.35
2018-02-23T19:13:15.354Z,3.14
2018-02-23T19:15:43.469Z,2.97
2018-02-23T19:18:11.861Z,3.03
2018-02-23T19:20:39.741Z,2.84
2018-02-23T19:23:07.608Z,2.65
2018-02-23T19:25:35.474Z,2.81
2018-02-23T19:28:03.630Z,2.98
2018-02-23T19:30:31.520Z,2.97
2018-02-23T19:32:59.279Z,2.64
2018-02-23T19:35:27.180Z,3.01
2018-02-23T19:37:55.114Z,2.81
2018-02-23T19:40:23.185Z,3.06
2018-02-23T19:42:51.460Z,3.06
2018-02-23T19:45:19.298Z,3.05
2018-02-23T19:47:46.988Z,2.83
2018-02-23T19:50:14.695Z,3.02
2018-02-23T19:52:42.620Z,2.90
2018-02-23T19:55:10.691Z,2.89
2018-02-23T19:57:38.763Z,3.08
2018-02-23T20:00:06.401Z,2.93
2018-02-23T20:02:35.213Z,3.13
2018-02-23T20:05:02.810Z,3.11
2018-02-23T20:07:30.739Z,2.83
2018-02-23T20:09:58.346Z,3.21
2018-02-23T20:12:26.165Z,3.28
2018-02-23T20:14:53.974Z,3.17
2018-02-23T20:17:21.690Z,3.26
2018-02-23T20:19:50.584Z,3.14
2018-02-23T20:22:20.411Z,3.06
2018-02-23T20:24:48.127Z,3.31
2018-02-23T20:27:16.027Z,3.14
2018-02-23T20:29:44.671Z,3.08
2018-02-23T20:32:13.156Z,3.30
2018-02-23T20:34:41.058Z,3.29
2018-02-23T20:37:08.926Z,3.09
2018-02-23T20:39:36.792Z,3.07
2018-02-23T20:42:04.659Z,3.06
2018-02-23T20:44:33.141Z,3.27
2018-02-23T20:47:01.006Z,3.24
2018-02-23T20:49:29.078Z,3.15
2018-02-23T20:51:56.963Z,3.19
2018-02-23T20:54:24.882Z,3.02
2018-02-23T20:56:52.980Z,2.97
2018-02-23T20:59:21.262Z,2.95
2018-02-23T21:01:49.127Z,2.90
2018-02-23T21:04:17.205Z,2.79
2018-02-23T21:06:45.272Z,2.31
2018-02-23T21:09:13.445Z,2.65
2018-02-23T21:11:41.514Z,2.67
2018-02-23T21:14:09.791Z,2.54
2018-02-23T21:16:38.190Z,2.78
2018-02-23T21:19:06.034Z,2.68
2018-02-23T21:21:34.517Z,2.97
2018-02-23T21:24:02.381Z,2.77
2018-02-23T21:26:30.761Z,2.73
2018-02-23T21:28:58.729Z,2.79
2018-02-23T21:31:27.006Z,2.81
2018-02-23T21:33:55.179Z,2.89
2018-02-23T21:36:22.942Z,2.66
2018-02-23T21:38:50.531Z,2.92
2018-02-23T21:41:18.472Z,3.00
2018-02-23T21:43:46.337Z,3.18
2018-02-23T21:46:14.105Z,3.06
2018-02-23T21:48:42.439Z,2.83
2018-02-23T21:51:10.345Z,2.91
2018-02-23T21:53:38.212Z,2.76
2018-02-23T21:56:06.141Z,2.81
2018-02-23T21:58:34.037Z,3.14
2018-02-23T22:01:01.913Z,2.80
2018-02-23T22:03:29.678Z,2.79
2018-02-23T22:05:57.442Z,2.87
2018-02-23T22:08:25.206Z,2.85
2018-02-23T22:10:53.278Z,2.94
2018-02-23T22:13:21.082Z,2.52
2018-02-23T22:15:48.678Z,2.56
2018-02-23T22:18:16.390Z,2.72
2018-02-23T22:20:43.985Z,2.73
2018-02-23T22:23:11.926Z,2.75
2018-02-23T22:25:39.457Z,2.68
2018-02-23T22:28:07.185Z,2.68
2018-02-23T22:30:34.789Z,2.51
2018-02-23T22:33:02.333Z,2.64
2018-02-23T22:35:30.815Z,2.55
2018-02-23T22:37:58.555Z,2.58
2018-02-23T22:40:26.067Z,2.50
2018-02-23T22:42:53.614Z,2.47
2018-02-23T22:45:21.124Z,2.57
2018-02-23T22:47:48.702Z,2.21
2018-02-23T22:50:16.247Z,2.21
2018-02-23T22:52:43.792Z,2.49
2018-02-23T22:55:11.358Z,2.28
2018-02-23T22:57:38.873Z,2.17
2018-02-23T23:00:07.458Z,2.21
2018-02-23T23:02:34.989Z,2.36
2018-02-23T23:05:02.506Z,2.30
2018-02-23T23:07:30.068Z,2.28
2018-02-23T23:09:57.588Z,2.18
2018-02-23T23:12:25.309Z,2.21
2018-02-23T23:14:52.889Z,2.05
2018-02-23T23:17:20.617Z,2.02
2018-02-23T23:19:48.281Z,1.91
2018-02-23T23:22:15.808Z,1.84
2018-02-23T23:24:43.356Z,2.03
2018-02-23T23:27:11.702Z,1.81
2018-02-23T23:29:39.223Z,1.96
2018-02-23T23:32:06.830Z,1.89
2018-02-23T23:34:34.360Z,1.92
2018-02-23T23:37:02.151Z,1.98
2018-02-23T23:39:31.618Z,1.80
2018-02-23T23:42:00.132Z,1.94
2018-02-23T23:44:27.693Z,1.84
2018-02-23T23:46:55.225Z,2.00
2018-02-23T23:49:23.192Z,1.87
2018-02-23T23:51:50.718Z,1.91
2018-02-23T23:54:18.262Z,1.68
2018-02-23T23:56:45.808Z,2.05
2018-02-23T23:59:13.322Z,2.09
